This is the latest recevied weather packets stored in our database for station/object LU8AQL-WX. If no packets are shown the sender has not sent any weather packets the latest 10 day(s).
| Time | Temp. | Humidity | Pressure | Rain* | Wind** | Luminosity | Snow |
|---|---|---|---|---|---|---|---|
| 1787463728 | 6.67° C | 62% | 1024 hPa | 0 mm | - | - | - |
| 1787463128 | 6.67° C | 62% | 1024 hPa | 0 mm | - | - | - |
| 1787462527 | 6.67° C | 63% | 1024 hPa | 0 mm | - | - | - |
| 1787461926 | 5.56° C | 66% | 1023 hPa | 0 mm | - | - | - |
| 1787461325 | 6.11° C | 64% | 1024 hPa | 0 mm | - | - | - |
| 1787460724 | 6.67° C | 62% | 1024 hPa | 0 mm | - | - | - |
| 1787460123 | 6.67° C | 62% | 1024 hPa | 0 mm | - | - | - |
| 1787459522 | 6.67° C | 62% | 1024 hPa | 0 mm | - | - | - |
| 1787458921 | 6.67° C | 62% | 1024 hPa | 0 mm | - | - | - |
| 1787458321 | 6.67° C | 62% | 1024 hPa | 0 mm | - | - | - |
| 1787457720 | 7.22° C | 59% | 1024 hPa | 0 mm | - | - | - |
| 1787457119 | 7.78° C | 59% | 1024 hPa | 0 mm | - | - | - |
| 1787456518 | 7.78° C | 59% | 1024 hPa | 0 mm | - | - | - |
| 1787455917 | 7.78° C | 58% | 1024 hPa | 0 mm | - | - | - |
| 1787455316 | 7.78° C | 58% | 1024 hPa | 0 mm | - | - | - |
| 1787454715 | 7.78° C | 58% | 1023 hPa | 0 mm | - | - | - |
| 1787454114 | 7.78° C | 58% | 1023 hPa | 0 mm | - | - | - |
| 1787453514 | 7.78° C | 58% | 1024 hPa | 0 mm | - | - | - |
| 1787452913 | 7.78° C | 56% | 1024 hPa | 0 mm | - | - | - |
| 1787452312 | 9.44° C | 49% | 1023 hPa | 0 mm | - | - | - |
| 1787451711 | 8.89° C | 54% | 1023 hPa | 0 mm | - | - | - |
| 1787451110 | 7.78° C | 59% | 1023 hPa | 0 mm | - | - | - |
| 1787450509 | 8.33° C | 56% | 1024 hPa | 0 mm | - | - | - |
| 1787449908 | 8.33° C | 56% | 1024 hPa | 0 mm | - | - | - |
| 1787449307 | 8.89° C | 53% | 1024 hPa | 0 mm | - | - | - |
* Rain latest hour (hover to see other rain measurements)
** Current wind speed in m/s (hover to see current wind gust speed)